This is the latest recevied weather packets stored in our database for station/object PP5EO-2. If no packets are shown the sender has not sent any weather packets the latest 1 day(s).
| Time | Temp. | Humidity | Pressure | Rain* | Wind** | Luminosity | Snow |
|---|---|---|---|---|---|---|---|
| 1778080016 | 28.33° C | 60% | 1018.7 hPa | - | - | - | - |
| 1778078826 | 27.78° C | 64% | 1019 hPa | - | - | - | - |
| 1778077636 | 27.22° C | 65% | 1019.3 hPa | - | - | - | - |
| 1778077041 | 27.22° C | 67% | 1019.4 hPa | - | - | - | - |
| 1778072875 | 22.78° C | 85% | 1019.8 hPa | - | - | - | - |
| 1778070495 | 22.22° C | 86% | 1020.1 hPa | - | - | - | - |
| 1778069900 | 21.67° C | 87% | 1020.1 hPa | - | - | - | - |
| 1778069305 | 22.22° C | 87% | 1019.9 hPa | - | - | - | - |
| 1778068116 | 22.22° C | 88% | 1019.7 hPa | - | - | - | - |
| 1778064546 | 20.56° C | 94% | 1019.4 hPa | - | - | - | - |
| 1778063951 | 20.56° C | 94% | 1019.3 hPa | - | - | - | - |
| 1778062165 | 20° C | 96% | 1019 hPa | - | - | - | - |
| 1778061570 | 20° C | 96% | 1018.9 hPa | - | - | - | - |
| 1778060975 | 20° C | 96% | 1018.9 hPa | - | - | - | - |
| 1778059190 | 20.56° C | 96% | 1018.6 hPa | - | - | - | - |
| 1778057405 | 20.56° C | 96% | 1018.2 hPa | - | - | - | - |
| 1778056810 | 20.56° C | 96% | 1018.2 hPa | - | - | - | - |
| 1778056215 | 20.56° C | 96% | 1018 hPa | - | - | - | - |
| 1778054431 | 20° C | 97% | 1017.9 hPa | - | - | - | - |
| 1778053835 | 20° C | 97% | 1017.9 hPa | - | - | - | - |
| 1778053240 | 20° C | 97% | 1018 hPa | - | - | - | - |
| 1778052645 | 20° C | 97% | 1017.8 hPa | - | - | - | - |
| 1778052050 | 20° C | 97% | 1017.6 hPa | - | - | - | - |
| 1778051455 | 20.56° C | 96% | 1017.5 hPa | - | - | - | - |
| 1778050266 | 20° C | 96% | 1017.1 hPa | - | - | - | - |
* Rain since midnight (hover to see other rain measurements)
** Current wind speed in m/s (hover to see current wind gust speed)